Time;durP1;ratioP1;P1;durP2;ratioP2;P2;SDS_P1;SDS_P2;PMS_P1;PMS_P2;Temp;Humidity;BMP_temperature;BMP_pressure;BME280_temperature;BME280_humidity;BME280_pressure;Samples;Min_cycle;Max_cycle;Signal;HPM_P1;HPM_P2
2021/12/11 00:01:18;;;;;;;5.35;1.50;;;;;;;2.27;100.00;97417.69;5073749;28;20503;-68
2021/12/11 00:03:54;;;;;;;6.40;1.17;;;;;;;2.24;100.00;97424.22;5053317;28;20115;-68
2021/12/11 00:06:30;;;;;;;4.00;1.60;;;;;;;2.15;100.00;97422.66;5064221;28;20478;-69
2021/12/11 00:08:59;;;;;;;2.72;1.30;;;;;;;2.14;100.00;97432.50;5073037;28;20032;-69
2021/12/11 00:11:34;;;;;;;3.05;1.52;;;;;;;2.17;100.00;97429.47;5071075;28;20025;-69
2021/12/11 00:14:01;;;;;;;4.50;1.65;;;;;;;2.17;100.00;97436.63;5071644;28;20505;-68
2021/12/11 00:16:29;;;;;;;4.85;1.98;;;;;;;2.22;100.00;97446.75;5063698;28;20078;-69
2021/12/11 00:19:02;;;;;;;4.55;1.90;;;;;;;2.18;100.00;97444.47;5060748;28;20083;-68
2021/12/11 00:21:29;;;;;;;3.15;1.63;;;;;;;2.25;100.00;97452.53;5069648;28;20063;-69
2021/12/11 00:24:06;;;;;;;4.10;1.40;;;;;;;2.22;100.00;97460.09;5070002;28;20664;-69
2021/12/11 00:26:37;;;;;;;3.22;1.50;;;;;;;2.17;100.00;97450.81;5055344;28;20812;-69
2021/12/11 00:29:04;;;;;;;4.03;1.75;;;;;;;2.16;100.00;97456.31;5069742;28;20385;-69
2021/12/11 00:31:31;;;;;;;3.97;1.80;;;;;;;2.18;100.00;97455.13;5041028;28;20029;-69
2021/12/11 00:33:58;;;;;;;3.80;1.95;;;;;;;2.22;100.00;97462.78;5067280;28;20086;-68
2021/12/11 00:36:32;;;;;;;2.70;1.70;;;;;;;2.24;100.00;97469.59;5073465;28;20363;-68
2021/12/11 00:39:05;;;;;;;3.83;1.83;;;;;;;2.03;100.00;97456.97;5065875;28;20474;-69
2021/12/11 00:41:33;;;;;;;5.25;2.13;;;;;;;2.22;100.00;97481.44;5052260;28;20031;-69
2021/12/11 00:44:01;;;;;;;4.95;2.30;;;;;;;2.23;100.00;97480.41;5069754;28;20025;-69
2021/12/11 00:46:28;;;;;;;4.97;2.50;;;;;;;2.11;100.00;97469.38;5069054;28;20024;-69
2021/12/11 00:48:55;;;;;;;3.47;2.08;;;;;;;2.19;100.00;97477.31;5055529;28;20035;-69
2021/12/11 00:51:22;;;;;;;4.07;1.92;;;;;;;2.30;100.00;97492.84;5060417;28;20440;-69
2021/12/11 00:53:54;;;;;;;3.95;1.70;;;;;;;2.31;100.00;97507.88;5054150;28;20516;-69
2021/12/11 00:56:27;;;;;;;5.05;1.80;;;;;;;2.26;100.00;97512.94;5066891;28;20446;-69
2021/12/11 00:58:55;;;;;;;3.22;1.90;;;;;;;2.28;100.00;97512.72;5051776;28;20048;-69
2021/12/11 01:01:30;;;;;;;5.18;1.95;;;;;;;2.26;100.00;97522.78;5069108;28;20024;-68
2021/12/11 01:03:59;;;;;;;4.82;1.77;;;;;;;2.22;100.00;97530.31;5055421;28;20410;-69
2021/12/11 01:06:33;;;;;;;;;;;;;;;2.24;100.00;97533.63;5044118;28;20074;-69
2021/12/11 01:09:05;;;;;;;4.80;1.83;;;;;;;2.16;100.00;97536.38;5067775;28;19965;-69
2021/12/11 01:11:36;;;;;;;3.22;1.77;;;;;;;1.94;100.00;97501.56;5065318;28;20059;-69
2021/12/11 01:14:50;;;;;;;2.75;1.90;;;;;;;2.14;100.00;97543.72;5067260;28;20078;-69
2021/12/11 01:17:57;;;;;;;3.55;1.65;;;;;;;2.13;100.00;97558.91;5013616;28;20048;-69
2021/12/11 01:20:33;;;;;;;2.90;1.90;;;;;;;2.09;100.00;97559.44;5048424;28;20160;-69
2021/12/11 01:22:59;;;;;;;5.32;1.95;;;;;;;2.19;100.00;97574.19;5049108;28;20090;-69
2021/12/11 01:25:27;;;;;;;3.80;2.00;;;;;;;2.10;100.00;97555.78;5050795;28;20029;-69
2021/12/11 01:27:57;;;;;;;4.50;2.20;;;;;;;2.25;100.00;97585.97;5050720;28;20028;-69
2021/12/11 01:30:30;;;;;;;6.97;2.22;;;;;;;2.03;100.00;97573.50;5068292;28;20485;-69
2021/12/11 01:32:55;;;;;;;4.07;2.05;;;;;;;2.09;100.00;97588.78;5038557;28;20052;-69
2021/12/11 01:35:22;;;;;;;4.50;2.25;;;;;;;2.18;100.00;97603.72;5051214;28;20024;-69
2021/12/11 01:37:51;;;;;;;5.90;3.00;;;;;;;2.16;100.00;97605.75;5068425;28;20044;-69
2021/12/11 01:40:20;;;;;;;4.15;2.47;;;;;;;2.10;100.00;97614.47;5068883;28;20021;-69
2021/12/11 01:42:47;;;;;;;3.20;1.88;;;;;;;2.14;100.00;97623.75;5068453;28;20032;-69
2021/12/11 01:45:15;;;;;;;2.88;2.00;;;;;;;2.05;100.00;97614.19;5047516;28;20025;-69
2021/12/11 01:47:43;;;;;;;5.28;2.45;;;;;;;2.02;100.00;97631.38;5052807;28;20040;-69
2021/12/11 01:50:24;;;;;;;5.87;2.30;;;;;;;1.98;100.00;97628.22;5068013;28;20055;-69
2021/12/11 01:53:05;;;;;;;4.25;2.00;;;;;;;2.02;100.00;97646.53;5058328;28;20751;-70
2021/12/11 01:55:32;;;;;;;7.18;2.38;;;;;;;2.03;100.00;97648.19;5066048;28;20060;-69
2021/12/11 01:58:01;;;;;;;4.90;2.60;;;;;;;2.03;100.00;97651.69;5066557;28;20052;-69
2021/12/11 02:00:47;;;;;;;7.20;2.60;;;;;;;2.05;100.00;97657.69;5059920;28;20024;-69
2021/12/11 02:03:16;;;;;;;3.75;2.15;;;;;;;2.05;100.00;97667.53;5060162;28;20048;-69
2021/12/11 02:05:42;;;;;;;3.17;2.20;;;;;;;2.11;100.00;97672.16;5056856;28;20041;-69
2021/12/11 02:08:12;;;;;;;4.85;2.30;;;;;;;2.17;100.00;97679.44;5067980;28;20111;-69
2021/12/11 02:10:41;;;;;;;6.20;1.77;;;;;;;2.14;100.00;97677.13;5067759;28;20027;-69
2021/12/11 02:13:11;;;;;;;6.25;1.98;;;;;;;2.11;100.00;97688.16;5067531;28;20032;-69
2021/12/11 02:15:46;;;;;;;2.97;1.80;;;;;;;2.10;100.00;97690.00;5066609;28;20393;-69
2021/12/11 02:18:27;;;;;;;3.33;1.83;;;;;;;2.14;100.00;97701.13;5057882;28;20033;-69
2021/12/11 02:20:57;;;;;;;3.45;2.28;;;;;;;2.14;100.00;97698.47;5066131;28;20461;-69
2021/12/11 02:23:24;;;;;;;3.53;2.00;;;;;;;2.15;100.00;97711.66;5073343;28;20028;-69
2021/12/11 02:25:53;;;;;;;2.95;1.92;;;;;;;2.15;100.00;97714.31;5063957;28;20027;-69
2021/12/11 02:28:34;;;;;;;5.57;2.42;;;;;;;2.14;100.00;97715.31;5085995;28;20103;-69
2021/12/11 02:31:36;;;;;;;3.55;1.85;;;;;;;2.17;100.00;97722.97;5058336;28;20043;-69
2021/12/11 02:34:11;;;;;;;3.15;2.05;;;;;;;2.04;100.00;97709.38;5053995;28;20033;-69
2021/12/11 02:36:47;;;;;;;5.20;2.50;;;;;;;2.17;100.00;97733.66;5052745;28;20110;-69
2021/12/11 02:39:25;;;;;;;4.85;2.30;;;;;;;2.07;100.00;97726.84;5069770;28;20036;-69
2021/12/11 02:42:00;;;;;;;2.80;2.20;;;;;;;2.17;100.00;97746.13;5070666;28;20066;-69
2021/12/11 02:44:43;;;;;;;3.92;2.60;;;;;;;2.13;100.00;97740.34;5054842;28;20020;-69
2021/12/11 02:47:16;;;;;;;5.47;2.90;;;;;;;2.14;100.00;97752.66;5073427;28;20031;-69
2021/12/11 02:50:01;;;;;;;5.68;2.70;;;;;;;2.11;100.00;97762.88;5074178;28;20138;-69
2021/12/11 02:52:41;;;;;;;3.70;2.33;;;;;;;2.11;100.00;97763.69;5070691;28;20025;-69
2021/12/11 02:55:32;;;;;;;4.13;2.30;;;;;;;1.97;100.00;97765.28;5071083;28;20035;-69
2021/12/11 02:58:03;;;;;;;4.22;2.40;;;;;;;1.98;100.00;97764.25;5065369;28;20128;-68
2021/12/11 03:00:32;;;;;;;4.93;2.80;;;;;;;1.96;100.00;97776.94;5069396;28;20028;-68
2021/12/11 03:03:05;;;;;;;;;;;;;;;1.96;100.00;97776.94;5064860;28;20039;-68
2021/12/11 03:05:40;;;;;;;4.72;2.50;;;;;;;1.93;100.00;97787.94;5069993;28;19951;-68
2021/12/11 03:08:08;;;;;;;5.40;2.95;;;;;;;1.82;100.00;97768.84;5054154;28;20073;-69
2021/12/11 03:10:35;;;;;;;3.40;2.50;;;;;;;1.84;100.00;97777.50;5071373;28;20040;-70
2021/12/11 03:13:01;;;;;;;4.53;2.80;;;;;;;1.92;100.00;97796.97;5063106;28;20549;-68
2021/12/11 03:15:26;;;;;;;6.05;3.33;;;;;;;1.92;100.00;97799.63;5062645;28;20081;-67
2021/12/11 03:17:52;;;;;;;4.88;3.00;;;;;;;1.93;100.00;97803.94;5063089;28;20401;-68
2021/12/11 03:20:23;;;;;;;8.35;3.58;;;;;;;1.87;100.00;97801.97;5043808;28;20036;-68
2021/12/11 03:22:52;;;;;;;6.90;3.47;;;;;;;1.81;100.00;97794.69;5071266;28;20029;-68
2021/12/11 03:25:23;;;;;;;7.38;3.83;;;;;;;1.92;100.00;97817.47;5062998;28;20082;-68
2021/12/11 03:27:49;;;;;;;6.28;3.60;;;;;;;1.92;100.00;97817.47;5067333;28;20032;-70
2021/12/11 03:30:21;;;;;;;6.53;3.85;;;;;;;1.82;100.00;97811.50;5069517;28;20031;-70
2021/12/11 03:32:51;;;;;;;6.38;3.63;;;;;;;1.89;100.00;97832.00;5052710;28;20021;-68
2021/12/11 03:35:17;;;;;;;5.53;3.30;;;;;;;1.69;100.00;97812.88;5041006;28;20119;-69
2021/12/11 03:37:43;;;;;;;4.95;3.00;;;;;;;1.66;100.00;97805.22;5066151;28;20029;-68
2021/12/11 03:40:10;;;;;;;6.88;3.47;;;;;;;1.85;100.00;97852.00;5050320;28;20025;-68
2021/12/11 03:42:38;;;;;;;5.57;3.65;;;;;;;1.86;100.00;97861.69;5052212;28;20035;-68
2021/12/11 03:45:11;;;;;;;5.22;3.40;;;;;;;1.78;100.00;97847.50;5068468;28;20174;-69
2021/12/11 03:47:41;;;;;;;6.95;4.20;;;;;;;1.86;100.00;97869.69;5067328;28;20036;-68
2021/12/11 03:50:07;;;;;;;;;;;;;;;1.85;100.00;97880.50;5036216;28;20503;-68
2021/12/11 03:52:33;;;;;;;5.70;3.58;;;;;;;1.78;100.00;97883.00;5048911;28;20003;-68
2021/12/11 03:54:58;;;;;;;6.07;3.90;;;;;;;1.77;100.00;97894.69;5065565;28;20103;-69
2021/12/11 03:57:26;;;;;;;6.93;4.25;;;;;;;1.77;100.00;97892.03;5049612;28;20086;-68
2021/12/11 03:59:53;;;;;;;7.55;4.15;;;;;;;1.72;100.00;97902.34;5052580;28;20060;-68
2021/12/11 04:02:26;;;;;;;5.97;3.88;;;;;;;1.27;100.00;97851.28;5056641;28;20065;-68
2021/12/11 04:04:59;;;;;;;6.88;3.92;;;;;;;1.69;100.00;97913.38;5068818;28;20094;-68
2021/12/11 04:07:28;;;;;;;9.15;4.03;;;;;;;1.65;100.00;97920.03;5068130;28;20028;-68
2021/12/11 04:09:54;;;;;;;8.10;5.05;;;;;;;1.71;100.00;97917.53;5068830;28;20316;-68
2021/12/11 04:12:21;;;;;;;7.90;5.13;;;;;;;1.71;100.00;97930.03;5050449;28;20028;-68
2021/12/11 04:14:49;;;;;;;7.43;5.25;;;;;;;1.53;100.00;97917.72;5057283;28;20063;-68
2021/12/11 04:17:18;;;;;;;9.82;4.90;;;;;;;1.68;100.00;97941.03;5051211;28;20771;-69
2021/12/11 04:19:44;;;;;;;8.07;5.13;;;;;;;1.67;100.00;97934.84;5063567;28;20024;-69
2021/12/11 04:22:10;;;;;;;10.13;5.18;;;;;;;1.65;100.00;97939.53;5068922;28;20033;-68
2021/12/11 04:24:40;;;;;;;9.07;5.85;;;;;;;1.48;100.00;97925.38;5068948;28;20035;-68
2021/12/11 04:27:07;;;;;;;7.63;4.80;;;;;;;1.51;100.00;97927.69;5067282;28;20019;-69
2021/12/11 04:29:34;;;;;;;10.32;5.72;;;;;;;1.68;100.00;97960.53;5078525;28;20026;-68
2021/12/11 04:32:01;;;;;;;10.57;6.28;;;;;;;1.73;100.00;97963.53;5088938;28;20465;-68
2021/12/11 04:34:28;;;;;;;10.90;6.35;;;;;;;1.42;100.00;97934.06;5076513;28;20016;-68
2021/12/11 04:37:03;;;;;;;9.85;6.38;;;;;;;1.68;100.00;97978.38;5068628;28;20039;-68
2021/12/11 04:39:35;;;;;;;13.45;7.95;;;;;;;1.71;100.00;97981.53;5050989;28;20089;-68
2021/12/11 04:42:09;;;;;;;12.52;7.63;;;;;;;1.69;100.00;97990.69;5067251;28;20475;-67
2021/12/11 04:44:42;;;;;;;12.98;7.45;;;;;;;1.74;100.00;97991.03;5060553;28;20040;-68
2021/12/11 04:47:28;;;;;;;12.32;7.85;;;;;;;1.72;100.00;97993.03;5056972;28;20029;-68
2021/12/11 04:49:58;;;;;;;16.08;9.25;;;;;;;1.64;100.00;97987.69;5063702;28;20039;-69
2021/12/11 04:52:37;;;;;;;14.18;8.75;;;;;;;1.68;100.00;97997.03;5049581;28;20043;-70
2021/12/11 05:00:40;;;;;;;14.95;9.40;;;;;;;1.68;100.00;98021.03;5081395;28;20132;-68
2021/12/11 05:03:44;;;;;;;17.73;9.93;;;;;;;1.54;100.00;98015.34;5082369;28;20082;-69
2021/12/11 05:06:21;;;;;;;16.65;9.23;;;;;;;1.62;100.00;98032.34;5067606;28;20055;-69
2021/12/11 05:11:38;;;;;;;15.43;8.68;;;;;;;1.60;100.00;98047.66;5078503;28;19982;-68
2021/12/11 05:14:06;;;;;;;16.30;9.00;;;;;;;1.64;100.00;98046.34;5077629;28;20324;-68
2021/12/11 05:16:32;;;;;;;13.85;8.25;;;;;;;1.47;100.00;98042.84;5066887;28;20024;-68
2021/12/11 05:18:57;;;;;;;14.93;8.70;;;;;;;1.65;100.00;98074.66;5067396;28;20032;-69
2021/12/11 05:21:23;;;;;;;15.98;8.98;;;;;;;1.64;100.00;98081.00;5060538;28;20059;-69
2021/12/11 05:23:51;;;;;;;15.65;8.75;;;;;;;1.64;100.00;98075.69;5068510;28;20031;-69
2021/12/11 05:26:18;;;;;;;15.67;8.30;;;;;;;1.53;100.00;98061.66;5068417;28;20028;-69
2021/12/11 05:28:45;;;;;;;14.50;8.48;;;;;;;1.61;100.00;98090.16;5065707;28;20121;-69
2021/12/11 05:31:10;;;;;;;17.75;9.18;;;;;;;1.60;100.00;98090.31;5050923;28;20032;-69
2021/12/11 05:33:37;;;;;;;15.20;8.75;;;;;;;1.65;100.00;98104.00;5066234;28;20082;-69
2021/12/11 05:36:06;;;;;;;15.68;8.32;;;;;;;1.66;100.00;98103.00;5069045;28;20033;-69
2021/12/11 05:38:33;;;;;;;17.35;8.57;;;;;;;1.72;100.00;98107.69;5069984;28;20099;-69
2021/12/11 05:41:02;;;;;;;16.50;8.88;;;;;;;1.70;100.00;98115.00;5065339;28;20036;-69
2021/12/11 05:43:28;;;;;;;18.48;9.48;;;;;;;1.49;100.00;98087.00;5060952;28;20033;-68
2021/12/11 05:45:53;;;;;;;17.75;9.68;;;;;;;1.66;100.00;98124.34;5072800;28;20032;-68
2021/12/11 05:48:19;;;;;;;15.35;9.40;;;;;;;1.45;100.00;98103.47;5054168;28;20028;-73
2021/12/11 05:50:52;;;;;;;15.82;9.27;;;;;;;1.56;100.00;98116.47;5071364;28;20039;-73
2021/12/11 05:53:18;;;;;;;18.77;9.77;;;;;;;1.66;100.00;98129.69;5082737;28;20028;-73
2021/12/11 05:55:46;;;;;;;16.63;9.95;;;;;;;1.49;100.00;98118.97;5082999;28;20055;-73
2021/12/11 05:58:14;;;;;;;18.97;9.70;;;;;;;1.58;100.00;98143.00;5050573;28;20028;-72
2021/12/11 06:00:46;;;;;;;16.92;9.13;;;;;;;1.66;100.00;98154.50;5057828;28;20028;-72
2021/12/11 06:03:13;;;;;;;18.48;9.65;;;;;;;1.28;100.00;98110.56;5079704;28;20033;-72
2021/12/11 06:05:39;;;;;;;16.60;9.65;;;;;;;1.52;100.00;98147.97;5062404;28;20444;-72
2021/12/11 06:08:05;;;;;;;17.95;9.93;;;;;;;1.41;100.00;98142.91;5070252;28;20064;-72
2021/12/11 06:10:31;;;;;;;18.38;10.32;;;;;;;1.45;100.00;98151.44;5053916;28;20529;-72
2021/12/11 06:12:58;;;;;;;20.15;10.75;;;;;;;1.57;100.00;98183.97;5072205;28;20108;-72
2021/12/11 06:15:24;;;;;;;19.10;10.60;;;;;;;1.57;100.00;98181.28;5072511;28;20098;-73
2021/12/11 06:17:50;;;;;;;21.48;10.88;;;;;;;1.50;100.00;98189.94;5073362;28;20032;-73
2021/12/11 06:20:20;;;;;;;18.98;10.48;;;;;;;1.57;100.00;98195.47;5054776;28;20032;-75
2021/12/11 06:22:47;;;;;;;20.17;10.73;;;;;;;1.52;100.00;98203.97;5072516;28;20036;-75
2021/12/11 06:25:16;;;;;;;17.95;10.43;;;;;;;1.47;100.00;98197.44;5054615;28;20098;-74
2021/12/11 06:27:43;;;;;;;19.42;10.35;;;;;;;1.53;100.00;98210.13;5076862;28;20043;-76
2021/12/11 06:30:09;;;;;;;17.88;9.68;;;;;;;1.39;100.00;98195.56;5078743;28;20060;-75
2021/12/11 06:32:35;;;;;;;18.42;10.23;;;;;;;1.51;100.00;98220.94;5066482;28;20036;-70
2021/12/11 06:35:07;;;;;;;15.80;9.18;;;;;;;1.58;100.00;98226.47;5070876;28;20040;-72
2021/12/11 06:37:33;;;;;;;14.70;8.75;;;;;;;1.58;100.00;98230.97;5057563;28;20055;-74
2021/12/11 06:39:58;;;;;;;15.80;9.13;;;;;;;1.54;100.00;98233.09;5085236;28;20130;-73
2021/12/11 06:42:24;;;;;;;17.20;8.88;;;;;;;1.58;100.00;98241.63;5077335;28;20025;-73
2021/12/11 06:44:50;;;;;;;16.42;9.40;;;;;;;1.34;100.00;98213.00;5049225;28;20035;-71
2021/12/11 06:47:15;;;;;;;17.40;9.32;;;;;;;1.53;100.00;98242.94;5069100;28;20413;-72
2021/12/11 06:49:44;;;;;;;18.38;9.65;;;;;;;1.50;100.00;98247.75;5069408;28;20037;-72
2021/12/11 06:52:13;;;;;;;14.25;8.20;;;;;;;1.46;100.00;98246.41;5058541;28;20124;-72
2021/12/11 06:54:39;;;;;;;15.63;8.65;;;;;;;1.48;100.00;98255.91;5061202;28;20039;-72
2021/12/11 06:57:05;;;;;;;17.05;9.23;;;;;;;1.51;100.00;98271.59;5067517;28;20560;-72
2021/12/11 06:59:30;;;;;;;15.82;9.63;;;;;;;1.52;100.00;98275.09;5059266;28;20045;-72
2021/12/11 07:01:55;;;;;;;15.00;8.80;;;;;;;1.34;100.00;98253.84;5057679;28;20124;-70
2021/12/11 07:04:21;;;;;;;16.05;9.50;;;;;;;1.52;100.00;98291.94;5060186;28;20029;-72
2021/12/11 07:06:49;;;;;;;17.52;9.43;;;;;;;1.54;100.00;98291.75;5057344;28;20090;-72
2021/12/11 07:09:16;;;;;;;17.17;10.00;;;;;;;1.63;100.00;98300.66;5055117;28;20036;-72
2021/12/11 07:11:44;;;;;;;15.10;8.85;;;;;;;1.41;100.00;98273.53;5059565;28;20283;-72
2021/12/11 07:14:15;;;;;;;18.70;10.20;;;;;;;1.62;100.00;98317.63;5057519;28;20032;-70
2021/12/11 07:16:40;;;;;;;15.55;9.63;;;;;;;1.56;100.00;98315.59;5061012;28;20475;-72
2021/12/11 07:19:07;;;;;;;18.05;10.32;;;;;;;1.51;100.00;98322.22;5045842;28;20143;-72
2021/12/11 07:21:32;;;;;;;20.27;10.40;;;;;;;1.53;100.00;98330.91;5045754;28;20033;-71
2021/12/11 07:23:59;;;;;;;17.70;9.23;;;;;;;1.55;100.00;98330.78;5061721;28;20031;-72
2021/12/11 07:26:32;;;;;;;20.42;10.57;;;;;;;1.62;100.00;98357.63;5072473;28;20412;-72
2021/12/11 07:29:19;;;;;;;18.13;10.52;;;;;;;1.62;100.00;98366.44;5071054;28;20039;-70
2021/12/11 07:31:47;;;;;;;15.65;9.15;;;;;;;1.68;100.00;98370.34;5071113;28;20119;-72
2021/12/11 07:34:13;;;;;;;19.30;8.32;;;;;;;1.71;100.00;98365.53;5068590;28;20031;-71
2021/12/11 07:36:39;;;;;;;14.90;8.48;;;;;;;1.69;100.00;98361.34;5069777;28;20097;-67
2021/12/11 07:39:11;;;;;;;14.90;7.95;;;;;;;1.57;100.00;98343.91;5070751;28;20074;-77
2021/12/11 07:41:37;;;;;;;16.55;8.77;;;;;;;1.59;100.00;98360.59;5056240;28;20473;-69
2021/12/11 07:44:03;;;;;;;14.10;7.97;;;;;;;1.68;100.00;98373.00;5065993;28;20070;-69
2021/12/11 07:46:30;;;;;;;16.27;9.30;;;;;;;1.68;100.00;98381.84;5040935;28;20056;-69
2021/12/11 07:48:57;;;;;;;13.75;7.75;;;;;;;1.72;100.00;98399.19;5049824;28;20382;-68
2021/12/11 07:51:24;;;;;;;13.02;7.95;;;;;;;1.69;100.00;98399.50;5066078;28;20816;-69
2021/12/11 07:53:50;;;;;;;13.20;8.68;;;;;;;1.72;100.00;98409.03;5068978;28;20034;-74
2021/12/11 07:56:18;;;;;;;14.57;8.00;;;;;;;1.79;100.00;98419.91;5069649;28;20051;-68
2021/12/11 07:58:44;;;;;;;14.23;8.38;;;;;;;1.74;100.00;98418.53;5069398;28;20020;-68
2021/12/11 08:01:10;;;;;;;13.05;7.57;;;;;;;1.75;100.00;98438.88;5067898;28;20036;-72
2021/12/11 08:03:37;;;;;;;12.80;7.30;;;;;;;1.74;100.00;98439.03;5065728;28;20039;-68
2021/12/11 08:06:04;;;;;;;12.57;7.72;;;;;;;1.51;100.00;98404.03;5074118;28;20144;-68
2021/12/11 08:08:29;;;;;;;13.95;6.97;;;;;;;1.78;100.00;98456.38;5070300;28;20163;-69
2021/12/11 08:11:02;;;;;;;11.20;7.25;;;;;;;1.79;100.00;98458.06;5057127;28;20124;-69
2021/12/11 08:13:27;;;;;;;12.38;7.60;;;;;;;1.82;100.00;98457.75;5069288;28;20120;-69
2021/12/11 08:15:55;;;;;;;12.93;7.95;;;;;;;1.81;100.00;98474.78;5057217;28;20539;-68
2021/12/11 08:18:22;;;;;;;15.73;8.52;;;;;;;1.84;100.00;98487.78;5070089;28;20020;-75
2021/12/11 08:20:48;;;;;;;15.00;8.85;;;;;;;1.81;100.00;98482.78;5052630;28;20510;-70
2021/12/11 08:23:16;;;;;;;14.35;8.43;;;;;;;1.83;100.00;98491.44;5053096;28;20028;-70
2021/12/11 08:25:44;;;;;;;13.90;8.63;;;;;;;1.82;100.00;98487.09;5055234;28;20032;-69
2021/12/11 08:28:12;;;;;;;13.45;8.15;;;;;;;1.80;100.00;98497.06;5064036;28;20398;-75
2021/12/11 08:30:41;;;;;;;10.38;6.53;;;;;;;1.79;100.00;98495.41;5070922;28;20158;-69
2021/12/11 08:33:07;;;;;;;13.38;7.95;;;;;;;1.65;100.00;98474.63;5056474;28;20637;-73
2021/12/11 08:35:33;;;;;;;17.83;9.73;;;;;;;1.84;100.00;98501.13;5071661;28;20032;-73
2021/12/11 08:37:59;;;;;;;18.40;9.25;;;;;;;1.77;100.00;98488.56;5070024;28;20035;-74
2021/12/11 08:40:32;;;;;;;15.50;9.55;;;;;;;1.81;100.00;98487.25;5068856;28;20424;-75
2021/12/11 08:42:58;;;;;;;13.77;8.18;;;;;;;1.95;100.00;98513.38;5050687;28;20028;-72
2021/12/11 08:45:33;;;;;;;16.42;9.13;;;;;;;1.93;100.00;98508.19;5072206;28;20729;-77
2021/12/11 08:48:00;;;;;;;16.27;9.68;;;;;;;1.93;100.00;98512.69;5052867;28;20016;-80
2021/12/11 08:50:29;;;;;;;15.55;9.48;;;;;;;2.06;100.00;98545.13;5053943;28;20470;-72
2021/12/11 08:52:55;;;;;;;15.23;8.73;;;;;;;2.03;100.00;98553.44;5064929;28;20039;-71
2021/12/11 08:55:29;;;;;;;15.85;9.07;;;;;;;1.98;100.00;98548.56;5066221;28;20028;-75
2021/12/11 08:57:55;;;;;;;14.27;8.90;;;;;;;1.89;100.00;98533.50;5072046;28;20490;-80
2021/12/11 09:00:47;;;;;;;15.70;8.38;;;;;;;2.02;100.00;98554.47;5049156;28;20020;-76
2021/12/11 09:03:39;;;;;;;15.15;9.25;;;;;;;2.10;100.00;98567.84;5060351;28;20025;-83
2021/12/11 09:06:19;;;;;;;14.23;8.48;;;;;;;1.76;100.00;98527.75;5045227;28;20036;-78
2021/12/11 09:08:54;;;;;;;14.85;8.82;;;;;;;2.13;100.00;98590.72;5047140;28;20033;-75
2021/12/11 09:11:47;;;;;;;16.65;8.25;;;;;;;2.07;99.98;98568.16;5052269;28;20035;-71
2021/12/11 09:14:22;;;;;;;15.30;8.63;;;;;;;2.11;99.38;98582.03;5067150;28;20558;-71
2021/12/11 09:17:00;;;;;;;14.43;8.45;;;;;;;2.26;99.15;98595.66;5048257;28;20032;-73
2021/12/11 09:20:10;;;;;;;10.35;6.70;;;;;;;2.22;98.12;98599.63;5045863;28;20024;-73
2021/12/11 09:22:41;;;;;;;16.42;8.38;;;;;;;2.17;98.02;98598.28;5024752;28;20044;-77
2021/12/11 09:25:11;;;;;;;12.20;7.82;;;;;;;2.24;98.09;98621.66;5050246;28;20034;-76
2021/12/11 09:28:02;;;;;;;16.10;8.55;;;;;;;2.06;97.73;98592.31;5064074;28;20028;-76
2021/12/11 09:30:37;;;;;;;14.15;7.50;;;;;;;2.21;98.03;98614.81;5049323;28;20028;-76
2021/12/11 09:33:11;;;;;;;16.52;8.40;;;;;;;2.29;97.59;98612.19;5069973;28;20017;-74
2021/12/11 09:35:41;;;;;;;15.32;7.93;;;;;;;2.32;97.21;98633.22;5071589;28;20531;-73
2021/12/11 09:38:16;;;;;;;15.20;8.10;;;;;;;1.97;96.54;98578.94;5061753;28;20127;-77
2021/12/11 09:40:41;;;;;;;15.27;8.45;;;;;;;2.41;97.44;98639.47;5070182;28;20648;-78
2021/12/11 09:43:06;;;;;;;13.32;8.15;;;;;;;2.54;98.16;98642.59;5054929;28;20089;-76
2021/12/11 09:45:40;;;;;;;15.75;9.73;;;;;;;2.68;96.80;98651.84;5069809;28;20020;-76
2021/12/11 09:48:14;;;;;;;16.73;8.65;;;;;;;2.37;96.55;98600.75;5085977;28;20016;-74
2021/12/11 09:50:51;;;;;;;14.32;8.80;;;;;;;2.62;96.90;98658.66;5050721;28;20059;-75
2021/12/11 09:53:19;;;;;;;18.55;9.75;;;;;;;2.39;98.00;98633.47;5053805;28;20186;-75
2021/12/11 09:55:47;;;;;;;12.52;7.28;;;;;;;2.39;99.26;98644.16;5063037;28;20040;-78
2021/12/11 09:58:19;;;;;;;17.02;10.02;;;;;;;2.53;99.88;98651.59;5049146;28;20056;-75
2021/12/11 10:00:50;;;;;;;16.92;9.80;;;;;;;2.47;99.66;98654.88;5064565;28;20033;-74
2021/12/11 10:03:19;;;;;;;16.98;9.70;;;;;;;2.22;99.97;98637.81;5046026;28;20028;-78
2021/12/11 10:05:56;;;;;;;16.83;10.35;;;;;;;2.51;100.00;98666.09;5047224;28;20097;-75
2021/12/11 10:08:40;;;;;;;15.68;9.15;;;;;;;2.29;99.79;98654.91;5062862;28;20036;-75
2021/12/11 10:11:11;;;;;;;14.80;9.43;;;;;;;2.59;99.48;98682.16;5062625;28;20069;-74
2021/12/11 10:13:53;;;;;;;16.88;9.40;;;;;;;2.52;99.95;98689.13;5063840;28;20043;-77
2021/12/11 10:16:22;;;;;;;19.20;9.63;;;;;;;2.42;98.98;98675.88;5043941;28;20669;-70
2021/12/11 10:18:48;;;;;;;15.80;9.80;;;;;;;2.59;99.59;98688.38;5062171;28;20032;-71
2021/12/11 10:21:22;;;;;;;15.63;10.07;;;;;;;2.60;100.00;98702.56;5058267;28;20410;-72
2021/12/11 10:23:51;;;;;;;16.30;10.07;;;;;;;2.49;99.72;98700.09;5049981;28;20705;-72
2021/12/11 10:26:19;;;;;;;14.48;9.25;;;;;;;2.35;99.19;98678.31;5061205;28;20115;-73
2021/12/11 10:28:49;;;;;;;17.88;10.35;;;;;;;2.31;99.51;98665.44;5061891;28;20038;-72
2021/12/11 10:31:23;;;;;;;16.48;9.82;;;;;;;2.59;97.66;98699.06;5063120;28;20013;-72
2021/12/11 10:33:49;;;;;;;15.20;9.63;;;;;;;2.66;97.56;98706.44;5043032;28;20054;-72
2021/12/11 10:36:17;;;;;;;14.82;10.07;;;;;;;2.53;98.07;98690.81;5062037;28;20111;-75
2021/12/11 10:38:44;;;;;;;14.48;8.85;;;;;;;2.64;97.11;98690.53;5063979;28;20559;-72
2021/12/11 10:41:11;;;;;;;16.23;9.00;;;;;;;2.53;97.09;98672.13;5060979;28;20501;-73
2021/12/11 10:44:02;;;;;;;16.85;9.38;;;;;;;2.61;97.35;98701.53;5060322;28;20032;-73
2021/12/11 10:46:32;;;;;;;12.75;8.02;;;;;;;2.49;96.75;98694.75;5052104;28;20075;-72
2021/12/11 10:48:58;;;;;;;15.25;8.98;;;;;;;2.59;97.04;98716.88;5062317;28;20024;-73
2021/12/11 10:51:29;;;;;;;16.73;8.85;;;;;;;2.59;97.49;98720.41;5045231;28;20402;-71
2021/12/11 10:53:55;;;;;;;16.30;9.35;;;;;;;2.63;97.58;98728.94;5065207;28;20028;-72
2021/12/11 10:56:23;;;;;;;16.08;9.88;;;;;;;2.61;97.22;98712.22;5063682;28;20024;-72
2021/12/11 10:58:58;;;;;;;14.38;8.85;;;;;;;2.85;95.68;98731.09;5069891;28;20024;-72
2021/12/11 11:01:29;;;;;;;14.10;8.95;;;;;;;2.85;96.76;98720.41;5082042;28;20084;-78
2021/12/11 11:03:59;;;;;;;14.05;8.45;;;;;;;3.05;95.22;98731.75;5063375;28;20055;-78
2021/12/11 11:06:25;;;;;;;12.38;8.07;;;;;;;3.10;94.36;98712.59;5064186;28;20100;-73
2021/12/11 11:08:51;;;;;;;11.32;7.30;;;;;;;3.24;93.05;98733.38;5067560;28;20028;-75
2021/12/11 11:11:23;;;;;;;13.60;8.02;;;;;;;3.28;93.07;98729.41;5068274;28;20032;-77
2021/12/11 11:13:49;;;;;;;11.43;7.10;;;;;;;3.39;93.04;98741.66;5067858;28;20032;-75
2021/12/11 11:16:18;;;;;;;14.30;8.10;;;;;;;3.39;92.68;98730.13;5057645;28;20027;-78
2021/12/11 11:18:44;;;;;;;11.05;7.22;;;;;;;3.52;91.32;98730.50;5066883;28;20043;-75
2021/12/11 11:21:16;;;;;;;11.80;6.65;;;;;;;3.73;89.87;98744.31;5065279;28;20084;-78
2021/12/11 11:23:46;;;;;;;9.98;6.03;;;;;;;3.50;89.77;98727.16;5067570;28;20021;-76
2021/12/11 11:26:17;;;;;;;10.45;5.82;;;;;;;3.68;89.11;98751.16;5076002;28;20485;-77
2021/12/11 11:28:42;;;;;;;10.32;5.60;;;;;;;3.58;89.43;98726.34;5062805;28;20029;-76
2021/12/11 11:31:22;;;;;;;9.75;5.55;;;;;;;3.66;88.45;98729.06;5077411;28;20143;-77
2021/12/11 11:33:49;;;;;;;9.73;5.57;;;;;;;3.84;88.22;98747.69;5052670;28;20036;-76
2021/12/11 11:36:18;;;;;;;9.23;5.90;;;;;;;3.84;87.13;98719.09;5061775;28;20494;-75
2021/12/11 11:38:47;;;;;;;10.60;5.70;;;;;;;4.09;86.91;98770.03;5079528;28;20021;-76
2021/12/11 11:41:17;;;;;;;10.88;5.90;;;;;;;4.20;85.02;98771.56;5060414;28;20119;-75
2021/12/11 11:43:43;;;;;;;;;;;;;;;4.06;82.41;98775.69;5080368;28;20031;-77
2021/12/11 11:46:08;;;;;;;7.22;4.68;;;;;;;4.02;83.01;98761.81;5074517;28;19916;-78
2021/12/11 11:48:37;;;;;;;8.95;4.80;;;;;;;4.10;81.02;98783.25;5062304;28;20039;-78
2021/12/11 11:51:08;;;;;;;9.43;4.63;;;;;;;4.33;80.41;98782.66;5073499;28;20028;-77
2021/12/11 11:53:34;;;;;;;13.98;5.25;;;;;;;4.37;80.62;98782.13;5070044;28;20043;-75
2021/12/11 11:56:04;;;;;;;10.50;5.88;;;;;;;4.55;80.70;98792.72;5071601;28;20028;-73